Accueil
METAR-TAF:

METAR-TAF

Aéroports :

Base aérienne 701 Salon-de-Provence

Salon-de-Provence, France

latitude: 43-36N, longitude: 005-06E, altitude: 59 m

Observation

Le bulletin a été fait il y a 26 minutes, à 14:30 UTC
Vent 6 kt de sud-est, variant entre est et sud/sud-est
Température 13°C
Humidité 77%
Pression 1017 hPa
Visibilité 10 km ou plus
Nuages épars à une hauteur de 2000 ft
Nuages épars à une hauteur de 5400 ft
Nuages fragmentés à une hauteur de 14000 ft

METAR: LFMY 271430Z AUTO 13006KT 090V160 9999 SCT020 SCT054 BKN140 13/09 Q1017 NOSIG

Heure: 15:56 (14:56 UTC)

Prévision

Le bulletin a été fait il y a 56 minutes, à 14:00 UTC
Prévision valable du 27 à 15 UTC au 28 à 15 UTC
Vent 10 kt de sud-est
Visibilité 10 km ou plus
Nuages épars à une hauteur de 3000 ft
Temporairement
du 28 à 05 UTC au 28 à 07 UTC
Visibilité: 4500 m
brume

TAF: LFMY 271400Z 2715/2815 13010KT 9999 SCT030 TEMPO 2805/2807 4500 BR

Observations et prévisions météorologiques de plus de 4000 aéroports (messages METAR et TAF).

Les stations disponibles sont représentées par des disques jaunes et rouges sur la carte.

Passer la souris dessus pour voir le nom de la station.

Cliquer dessus pour voir les observations et prévisions météorologiques.

Pour changer de carte: cliquez sur les boutons verts avec une croix noire pour zoomer, sur le bouton vert avec un tiret pour effectuer un zoom arrière, ou sur les flèches vertes pour les cartes adjacentes.


METAR-TAF: